sensor_id;sensor_type;location;lat;lon;timestamp;pressure;altitude;pressure_sealevel;temperature;humidity
10310;BME280;5200;43.236;27.986;2022-07-25T00:01:52;99805.13;;;22.44;100.00
10310;BME280;5200;43.236;27.986;2022-07-25T00:04:22;99781.78;;;22.26;100.00
10310;BME280;5200;43.236;27.986;2022-07-25T00:06:50;99797.81;;;22.32;100.00
10310;BME280;5200;43.236;27.986;2022-07-25T00:09:17;99801.50;;;22.31;100.00
10310;BME280;5200;43.236;27.986;2022-07-25T00:11:45;99799.69;;;22.32;100.00
10310;BME280;5200;43.236;27.986;2022-07-25T00:14:12;99801.81;;;22.23;100.00
10310;BME280;5200;43.236;27.986;2022-07-25T00:16:39;99815.97;;;22.30;100.00
10310;BME280;5200;43.236;27.986;2022-07-25T00:19:06;99810.41;;;22.32;100.00
10310;BME280;5200;43.236;27.986;2022-07-25T00:21:33;99790.28;;;22.16;100.00
10310;BME280;5200;43.236;27.986;2022-07-25T00:24:00;99794.19;;;22.20;100.00
10310;BME280;5200;43.236;27.986;2022-07-25T00:26:27;99806.66;;;22.33;100.00
10310;BME280;5200;43.236;27.986;2022-07-25T00:28:57;99793.75;;;22.23;100.00
10310;BME280;5200;43.236;27.986;2022-07-25T00:31:24;99817.59;;;22.31;100.00
10310;BME280;5200;43.236;27.986;2022-07-25T00:33:50;99815.09;;;22.36;100.00
10310;BME280;5200;43.236;27.986;2022-07-25T00:36:17;99807.22;;;22.42;100.00
10310;BME280;5200;43.236;27.986;2022-07-25T00:38:45;99810.50;;;22.44;100.00
10310;BME280;5200;43.236;27.986;2022-07-25T00:41:11;99817.88;;;22.48;100.00
10310;BME280;5200;43.236;27.986;2022-07-25T00:43:41;99811.53;;;22.43;100.00
10310;BME280;5200;43.236;27.986;2022-07-25T00:46:12;99815.97;;;22.30;100.00
10310;BME280;5200;43.236;27.986;2022-07-25T00:48:39;99793.84;;;22.10;100.00
10310;BME280;5200;43.236;27.986;2022-07-25T00:51:07;99784.81;;;22.04;100.00
10310;BME280;5200;43.236;27.986;2022-07-25T00:53:34;99812.59;;;22.10;100.00
10310;BME280;5200;43.236;27.986;2022-07-25T00:56:01;99829.53;;;22.04;100.00
10310;BME280;5200;43.236;27.986;2022-07-25T00:58:29;99867.28;;;21.95;100.00
10310;BME280;5200;43.236;27.986;2022-07-25T01:00:56;99898.19;;;21.98;100.00
10310;BME280;5200;43.236;27.986;2022-07-25T01:03:24;99928.06;;;22.02;100.00
10310;BME280;5200;43.236;27.986;2022-07-25T01:05:51;99929.84;;;22.08;100.00
10310;BME280;5200;43.236;27.986;2022-07-25T01:08:19;99899.75;;;22.12;100.00
10310;BME280;5200;43.236;27.986;2022-07-25T01:10:47;99863.59;;;21.97;100.00
10310;BME280;5200;43.236;27.986;2022-07-25T01:13:14;99889.47;;;22.09;100.00
10310;BME280;5200;43.236;27.986;2022-07-25T01:15:41;99921.13;;;22.19;100.00
10310;BME280;5200;43.236;27.986;2022-07-25T01:18:08;99934.13;;;22.22;100.00
10310;BME280;5200;43.236;27.986;2022-07-25T01:20:37;99894.19;;;22.14;100.00
10310;BME280;5200;43.236;27.986;2022-07-25T01:23:04;99872.91;;;22.26;100.00
10310;BME280;5200;43.236;27.986;2022-07-25T01:25:31;99857.09;;;22.11;100.00
10310;BME280;5200;43.236;27.986;2022-07-25T01:27:58;99916.59;;;22.20;100.00
10310;BME280;5200;43.236;27.986;2022-07-25T01:30:25;99906.19;;;22.05;100.00
10310;BME280;5200;43.236;27.986;2022-07-25T01:32:52;99893.41;;;22.07;100.00
10310;BME280;5200;43.236;27.986;2022-07-25T01:35:19;99888.06;;;22.00;100.00
10310;BME280;5200;43.236;27.986;2022-07-25T01:37:48;99917.31;;;22.08;100.00
10310;BME280;5200;43.236;27.986;2022-07-25T01:40:15;99892.84;;;21.91;100.00
10310;BME280;5200;43.236;27.986;2022-07-25T01:42:43;99915.94;;;21.92;100.00
10310;BME280;5200;43.236;27.986;2022-07-25T01:45:11;99904.00;;;21.88;100.00
10310;BME280;5200;43.236;27.986;2022-07-25T01:47:38;99877.72;;;21.72;100.00
10310;BME280;5200;43.236;27.986;2022-07-25T01:50:06;99893.75;;;21.79;100.00
10310;BME280;5200;43.236;27.986;2022-07-25T01:52:35;99892.78;;;21.73;100.00
10310;BME280;5200;43.236;27.986;2022-07-25T01:55:04;99874.88;;;21.67;100.00
10310;BME280;5200;43.236;27.986;2022-07-25T01:57:31;99861.28;;;21.68;100.00
10310;BME280;5200;43.236;27.986;2022-07-25T01:59:58;99868.47;;;21.68;100.00
10310;BME280;5200;43.236;27.986;2022-07-25T02:02:25;99853.88;;;21.64;100.00
10310;BME280;5200;43.236;27.986;2022-07-25T02:04:52;99861.22;;;21.75;100.00
10310;BME280;5200;43.236;27.986;2022-07-25T02:07:19;99839.88;;;21.68;99.33
10310;BME280;5200;43.236;27.986;2022-07-25T02:09:46;99858.47;;;21.88;96.27
10310;BME280;5200;43.236;27.986;2022-07-25T02:12:14;99852.91;;;21.90;93.27
10310;BME280;5200;43.236;27.986;2022-07-25T02:14:41;99833.16;;;21.84;92.44
10310;BME280;5200;43.236;27.986;2022-07-25T02:17:08;99834.41;;;21.82;90.64
10310;BME280;5200;43.236;27.986;2022-07-25T02:19:36;99845.41;;;21.99;88.97
10310;BME280;5200;43.236;27.986;2022-07-25T02:22:03;99829.88;;;21.82;87.90
10310;BME280;5200;43.236;27.986;2022-07-25T02:24:30;99852.06;;;21.89;88.21
10310;BME280;5200;43.236;27.986;2022-07-25T02:26:56;99828.84;;;21.83;86.42
10310;BME280;5200;43.236;27.986;2022-07-25T02:29:25;99832.75;;;21.87;85.55
10310;BME280;5200;43.236;27.986;2022-07-25T02:31:52;99826.34;;;21.88;84.21
10310;BME280;5200;43.236;27.986;2022-07-25T02:34:19;99828.81;;;21.90;85.47
10310;BME280;5200;43.236;27.986;2022-07-25T02:36:46;99829.00;;;21.88;84.48
10310;BME280;5200;43.236;27.986;2022-07-25T02:39:13;99798.84;;;21.68;84.30
10310;BME280;5200;43.236;27.986;2022-07-25T02:41:40;99838.31;;;21.86;84.43
10310;BME280;5200;43.236;27.986;2022-07-25T02:44:07;99832.13;;;21.85;83.63
10310;BME280;5200;43.236;27.986;2022-07-25T02:46:35;99832.75;;;21.87;82.78
10310;BME280;5200;43.236;27.986;2022-07-25T02:49:02;99809.69;;;21.80;83.42
10310;BME280;5200;43.236;27.986;2022-07-25T02:51:30;99824.09;;;21.85;83.81
10310;BME280;5200;43.236;27.986;2022-07-25T02:53:57;99827.03;;;21.77;83.99
10310;BME280;5200;43.236;27.986;2022-07-25T02:56:24;99831.34;;;21.78;84.14
10310;BME280;5200;43.236;27.986;2022-07-25T02:58:51;99829.88;;;21.82;84.04
10310;BME280;5200;43.236;27.986;2022-07-25T03:01:18;99807.25;;;21.78;85.18
10310;BME280;5200;43.236;27.986;2022-07-25T03:03:47;99786.22;;;21.82;85.47
10310;BME280;5200;43.236;27.986;2022-07-25T03:06:14;99781.13;;;21.99;86.29
10310;BME280;5200;43.236;27.986;2022-07-25T03:08:41;99774.44;;;22.14;85.98
10310;BME280;5200;43.236;27.986;2022-07-25T03:11:08;99757.63;;;22.32;85.22
10310;BME280;5200;43.236;27.986;2022-07-25T03:13:35;99769.13;;;22.58;85.69
10310;BME280;5200;43.236;27.986;2022-07-25T03:16:02;99753.19;;;22.63;85.47
10310;BME280;5200;43.236;27.986;2022-07-25T03:18:29;99759.72;;;22.86;84.80
10310;BME280;5200;43.236;27.986;2022-07-25T03:20:57;99763.84;;;22.88;85.18
10310;BME280;5200;43.236;27.986;2022-07-25T03:23:24;99752.72;;;22.85;84.84
10310;BME280;5200;43.236;27.986;2022-07-25T03:25:52;99778.50;;;23.23;83.84
10310;BME280;5200;43.236;27.986;2022-07-25T03:28:19;99750.28;;;23.50;82.27
10310;BME280;5200;43.236;27.986;2022-07-25T03:30:46;99778.22;;;24.03;79.20
10310;BME280;5200;43.236;27.986;2022-07-25T03:33:13;99764.78;;;24.38;77.60
10310;BME280;5200;43.236;27.986;2022-07-25T03:35:40;99763.28;;;24.66;75.51
10310;BME280;5200;43.236;27.986;2022-07-25T03:38:08;99731.50;;;24.51;75.07
10310;BME280;5200;43.236;27.986;2022-07-25T03:40:35;99758.97;;;24.30;76.65
10310;BME280;5200;43.236;27.986;2022-07-25T03:43:02;99754.72;;;23.98;78.62
10310;BME280;5200;43.236;27.986;2022-07-25T03:45:29;99759.25;;;23.86;79.98
10310;BME280;5200;43.236;27.986;2022-07-25T03:47:56;99756.50;;;24.04;79.35
10310;BME280;5200;43.236;27.986;2022-07-25T03:50:23;99760.81;;;24.29;77.66
10310;BME280;5200;43.236;27.986;2022-07-25T03:52:50;99758.09;;;24.05;78.43
10310;BME280;5200;43.236;27.986;2022-07-25T03:55:18;99762.75;;;23.87;80.12
10310;BME280;5200;43.236;27.986;2022-07-25T03:57:45;99760.03;;;23.75;80.27
10310;BME280;5200;43.236;27.986;2022-07-25T04:00:13;99754.78;;;23.80;80.40
10310;BME280;5200;43.236;27.986;2022-07-25T04:02:40;99768.47;;;23.78;79.95
10310;BME280;5200;43.236;27.986;2022-07-25T04:05:07;99771.00;;;23.73;80.80
10310;BME280;5200;43.236;27.986;2022-07-25T04:07:35;99744.31;;;23.48;80.15
10310;BME280;5200;43.236;27.986;2022-07-25T04:10:03;99762.06;;;23.61;80.83
10310;BME280;5200;43.236;27.986;2022-07-25T04:12:31;99762.75;;;23.56;81.39
10310;BME280;5200;43.236;27.986;2022-07-25T04:14:58;99767.09;;;23.57;81.64
10310;BME280;5200;43.236;27.986;2022-07-25T04:17:25;99769.19;;;23.55;81.42
10310;BME280;5200;43.236;27.986;2022-07-25T04:19:52;99759.91;;;23.39;82.02
10310;BME280;5200;43.236;27.986;2022-07-25T04:22:19;99782.91;;;23.35;83.27
10310;BME280;5200;43.236;27.986;2022-07-25T04:24:46;99778.66;;;23.28;83.50
10310;BME280;5200;43.236;27.986;2022-07-25T04:27:13;99786.84;;;23.33;83.43
10310;BME280;5200;43.236;27.986;2022-07-25T04:29:42;99774.75;;;23.12;84.04
10310;BME280;5200;43.236;27.986;2022-07-25T04:32:09;99785.81;;;23.15;83.55
10310;BME280;5200;43.236;27.986;2022-07-25T04:34:36;99798.34;;;23.21;84.02
10310;BME280;5200;43.236;27.986;2022-07-25T04:37:03;99815.47;;;23.20;84.52
10310;BME280;5200;43.236;27.986;2022-07-25T04:39:30;99828.22;;;23.25;84.76
10310;BME280;5200;43.236;27.986;2022-07-25T04:41:57;99828.75;;;23.15;83.95
10310;BME280;5200;43.236;27.986;2022-07-25T04:44:24;99834.66;;;23.06;85.10
10310;BME280;5200;43.236;27.986;2022-07-25T04:46:52;99831.31;;;23.10;83.78
10310;BME280;5200;43.236;27.986;2022-07-25T04:49:19;99840.50;;;22.96;85.29
10310;BME280;5200;43.236;27.986;2022-07-25T04:51:46;99840.19;;;22.86;85.80
10310;BME280;5200;43.236;27.986;2022-07-25T04:54:13;99837.22;;;22.94;85.91
10310;BME280;5200;43.236;27.986;2022-07-25T04:56:40;99847.09;;;23.00;84.86
10310;BME280;5200;43.236;27.986;2022-07-25T04:59:07;99844.94;;;23.09;84.48
10310;BME280;5200;43.236;27.986;2022-07-25T05:01:34;99825.03;;;22.98;84.41
10310;BME280;5200;43.236;27.986;2022-07-25T05:04:02;99816.97;;;22.98;83.90
10310;BME280;5200;43.236;27.986;2022-07-25T05:06:29;99814.47;;;23.03;82.66
10310;BME280;5200;43.236;27.986;2022-07-25T05:08:57;99816.38;;;22.96;82.70
10310;BME280;5200;43.236;27.986;2022-07-25T05:11:24;99850.38;;;23.02;82.91
10310;BME280;5200;43.236;27.986;2022-07-25T05:13:51;99869.88;;;22.91;84.02
10310;BME280;5200;43.236;27.986;2022-07-25T05:16:18;99871.63;;;22.78;84.86
10310;BME280;5200;43.236;27.986;2022-07-25T05:18:45;99861.19;;;22.70;85.17
10310;BME280;5200;43.236;27.986;2022-07-25T05:21:13;99880.13;;;22.75;85.78
10310;BME280;5200;43.236;27.986;2022-07-25T05:23:40;99887.59;;;22.67;86.50
10310;BME280;5200;43.236;27.986;2022-07-25T05:26:07;99899.00;;;22.62;87.36
10310;BME280;5200;43.236;27.986;2022-07-25T05:28:34;99878.75;;;22.41;87.80
10310;BME280;5200;43.236;27.986;2022-07-25T05:31:01;99898.22;;;22.55;88.84
10310;BME280;5200;43.236;27.986;2022-07-25T05:33:29;99904.19;;;22.57;89.16
10310;BME280;5200;43.236;27.986;2022-07-25T05:35:55;99905.00;;;22.57;89.30
10310;BME280;5200;43.236;27.986;2022-07-25T05:38:24;99894.16;;;22.46;89.51
10310;BME280;5200;43.236;27.986;2022-07-25T05:40:51;99909.94;;;22.61;89.41
10310;BME280;5200;43.236;27.986;2022-07-25T05:43:18;99917.72;;;22.69;89.46
10310;BME280;5200;43.236;27.986;2022-07-25T05:45:45;99926.09;;;22.79;89.27
10310;BME280;5200;43.236;27.986;2022-07-25T05:48:12;99931.63;;;22.84;88.97
10310;BME280;5200;43.236;27.986;2022-07-25T05:50:40;99924.69;;;22.95;88.29
10310;BME280;5200;43.236;27.986;2022-07-25T05:53:07;99926.69;;;23.06;87.74
10310;BME280;5200;43.236;27.986;2022-07-25T05:55:35;99925.38;;;23.15;87.53
10310;BME280;5200;43.236;27.986;2022-07-25T05:58:02;99921.88;;;23.33;86.98
10310;BME280;5200;43.236;27.986;2022-07-25T06:00:29;99908.53;;;23.45;85.60
10310;BME280;5200;43.236;27.986;2022-07-25T06:02:57;99906.13;;;23.55;84.25
10310;BME280;5200;43.236;27.986;2022-07-25T06:05:24;99904.19;;;23.62;84.22
10310;BME280;5200;43.236;27.986;2022-07-25T06:07:51;99898.72;;;23.69;83.57
10310;BME280;5200;43.236;27.986;2022-07-25T06:10:18;99890.16;;;23.60;83.23
10310;BME280;5200;43.236;27.986;2022-07-25T06:12:47;99908.19;;;23.72;83.28
10310;BME280;5200;43.236;27.986;2022-07-25T06:15:14;99892.03;;;23.78;83.22
10310;BME280;5200;43.236;27.986;2022-07-25T06:17:41;99907.31;;;24.08;81.86
10310;BME280;5200;43.236;27.986;2022-07-25T06:20:09;99906.06;;;24.11;80.70
10310;BME280;5200;43.236;27.986;2022-07-25T06:22:37;99904.13;;;24.30;80.03
10310;BME280;5200;43.236;27.986;2022-07-25T06:25:05;99899.56;;;24.30;78.65
10310;BME280;5200;43.236;27.986;2022-07-25T06:27:33;99892.66;;;24.22;78.44
10310;BME280;5200;43.236;27.986;2022-07-25T06:30:02;99909.03;;;24.33;79.42
10310;BME280;5200;43.236;27.986;2022-07-25T06:32:29;99902.50;;;24.40;78.15
10310;BME280;5200;43.236;27.986;2022-07-25T06:34:56;99908.63;;;24.47;77.54
10310;BME280;5200;43.236;27.986;2022-07-25T06:37:23;99889.66;;;24.42;77.15
10310;BME280;5200;43.236;27.986;2022-07-25T06:39:50;99910.03;;;24.62;76.64
10310;BME280;5200;43.236;27.986;2022-07-25T06:42:17;99878.34;;;24.64;75.82
10310;BME280;5200;43.236;27.986;2022-07-25T06:44:44;99892.16;;;25.03;75.37
10310;BME280;5200;43.236;27.986;2022-07-25T06:47:13;99899.78;;;25.18;74.25
10310;BME280;5200;43.236;27.986;2022-07-25T06:49:40;99882.78;;;25.17;72.99
10310;BME280;5200;43.236;27.986;2022-07-25T06:52:08;99891.16;;;25.44;71.75
10310;BME280;5200;43.236;27.986;2022-07-25T06:54:34;99904.88;;;25.55;71.59
10310;BME280;5200;43.236;27.986;2022-07-25T06:57:02;99890.59;;;25.54;70.63
10310;BME280;5200;43.236;27.986;2022-07-25T06:59:28;99910.16;;;25.90;70.41
10310;BME280;5200;43.236;27.986;2022-07-25T07:01:55;99889.53;;;26.12;68.32
10310;BME280;5200;43.236;27.986;2022-07-25T07:04:24;99907.66;;;26.46;67.22
10310;BME280;5200;43.236;27.986;2022-07-25T07:06:51;99908.63;;;26.56;64.83
10310;BME280;5200;43.236;27.986;2022-07-25T07:09:18;99905.25;;;26.49;65.55
10310;BME280;5200;43.236;27.986;2022-07-25T07:11:44;99884.19;;;26.29;65.84
10310;BME280;5200;43.236;27.986;2022-07-25T07:14:11;99911.81;;;26.53;66.49
10310;BME280;5200;43.236;27.986;2022-07-25T07:16:38;99908.72;;;26.62;66.34
10310;BME280;5200;43.236;27.986;2022-07-25T07:19:06;99908.78;;;26.67;67.15
10310;BME280;5200;43.236;27.986;2022-07-25T07:21:36;99897.94;;;26.62;65.80
10310;BME280;5200;43.236;27.986;2022-07-25T07:24:04;99894.78;;;26.36;66.77
10310;BME280;5200;43.236;27.986;2022-07-25T07:26:31;99912.78;;;26.47;67.66
10310;BME280;5200;43.236;27.986;2022-07-25T07:28:58;99910.66;;;26.49;68.09
10310;BME280;5200;43.236;27.986;2022-07-25T07:31:25;99917.19;;;26.53;68.38
10310;BME280;5200;43.236;27.986;2022-07-25T07:33:52;99900.69;;;26.50;68.30
10310;BME280;5200;43.236;27.986;2022-07-25T07:36:19;99908.19;;;26.48;68.61
10310;BME280;5200;43.236;27.986;2022-07-25T07:38:47;99918.63;;;26.56;68.35
10310;BME280;5200;43.236;27.986;2022-07-25T07:41:14;99911.31;;;26.73;67.66
10310;BME280;5200;43.236;27.986;2022-07-25T07:43:41;99910.28;;;26.74;66.80
10310;BME280;5200;43.236;27.986;2022-07-25T07:46:08;99912.13;;;26.74;67.50
10310;BME280;5200;43.236;27.986;2022-07-25T07:48:35;99898.75;;;26.79;66.25
10310;BME280;5200;43.236;27.986;2022-07-25T07:51:03;99894.16;;;26.80;66.70
10310;BME280;5200;43.236;27.986;2022-07-25T07:53:30;99923.41;;;27.05;66.37
10310;BME280;5200;43.236;27.986;2022-07-25T07:56:16;99922.34;;;27.45;65.50
10310;BME280;5200;43.236;27.986;2022-07-25T07:58:44;99921.59;;;27.71;64.65
10310;BME280;5200;43.236;27.986;2022-07-25T08:01:11;99920.94;;;28.08;63.58
10310;BME280;5200;43.236;27.986;2022-07-25T08:03:38;99920.63;;;28.32;62.11
10310;BME280;5200;43.236;27.986;2022-07-25T08:06:05;99913.00;;;28.29;60.87
10310;BME280;5200;43.236;27.986;2022-07-25T08:08:32;99916.63;;;28.12;61.15
10310;BME280;5200;43.236;27.986;2022-07-25T08:11:00;99896.81;;;27.79;63.26
10310;BME280;5200;43.236;27.986;2022-07-25T08:13:30;99910.66;;;27.61;63.50
10310;BME280;5200;43.236;27.986;2022-07-25T08:15:59;99925.47;;;27.58;64.38
10310;BME280;5200;43.236;27.986;2022-07-25T08:18:27;99935.47;;;27.36;65.49
10310;BME280;5200;43.236;27.986;2022-07-25T08:20:56;99941.97;;;27.01;66.01
10310;BME280;5200;43.236;27.986;2022-07-25T08:23:23;99941.94;;;26.79;67.32
10310;BME280;5200;43.236;27.986;2022-07-25T08:25:52;99941.91;;;26.62;68.19
10310;BME280;5200;43.236;27.986;2022-07-25T08:28:19;99948.91;;;26.46;68.92
10310;BME280;5200;43.236;27.986;2022-07-25T08:30:48;99944.00;;;26.43;69.54
10310;BME280;5200;43.236;27.986;2022-07-25T08:33:14;99950.66;;;26.24;70.57
10310;BME280;5200;43.236;27.986;2022-07-25T08:35:45;99952.31;;;26.25;71.12
10310;BME280;5200;43.236;27.986;2022-07-25T08:38:13;99955.94;;;26.47;69.89
10310;BME280;5200;43.236;27.986;2022-07-25T08:40:40;99951.06;;;26.61;69.88
10310;BME280;5200;43.236;27.986;2022-07-25T08:43:10;99934.56;;;26.58;68.65
10310;BME280;5200;43.236;27.986;2022-07-25T08:45:43;99932.09;;;26.73;68.11
10310;BME280;5200;43.236;27.986;2022-07-25T08:48:12;99947.38;;;27.01;67.30
10310;BME280;5200;43.236;27.986;2022-07-25T08:50:39;99939.09;;;27.08;66.68
10310;BME280;5200;43.236;27.986;2022-07-25T08:53:07;99935.13;;;26.93;68.33
10310;BME280;5200;43.236;27.986;2022-07-25T08:55:34;99926.84;;;27.00;68.36
10310;BME280;5200;43.236;27.986;2022-07-25T08:58:01;99918.97;;;27.15;67.91
10310;BME280;5200;43.236;27.986;2022-07-25T09:00:28;99918.94;;;27.32;67.89
10310;BME280;5200;43.236;27.986;2022-07-25T09:02:57;99923.25;;;27.77;64.90
10310;BME280;5200;43.236;27.986;2022-07-25T09:05:27;99935.63;;;27.68;64.84
10310;BME280;5200;43.236;27.986;2022-07-25T09:07:55;99940.41;;;27.61;65.15
10310;BME280;5200;43.236;27.986;2022-07-25T09:10:24;99941.63;;;27.53;65.46
10310;BME280;5200;43.236;27.986;2022-07-25T09:12:52;99938.94;;;27.53;66.01
10310;BME280;5200;43.236;27.986;2022-07-25T09:15:26;99932.31;;;27.22;65.42
10310;BME280;5200;43.236;27.986;2022-07-25T09:17:54;99929.69;;;27.10;66.67
10310;BME280;5200;43.236;27.986;2022-07-25T09:20:22;99919.09;;;26.87;66.23
10310;BME280;5200;43.236;27.986;2022-07-25T09:22:50;99930.78;;;26.75;67.45
10310;BME280;5200;43.236;27.986;2022-07-25T09:25:22;99932.91;;;26.73;67.27
10310;BME280;5200;43.236;27.986;2022-07-25T09:27:49;99915.03;;;26.39;68.84
10310;BME280;5200;43.236;27.986;2022-07-25T09:30:17;99930.41;;;26.38;69.36
10310;BME280;5200;43.236;27.986;2022-07-25T09:32:44;99936.31;;;26.35;70.08
10310;BME280;5200;43.236;27.986;2022-07-25T09:35:11;99937.13;;;26.35;70.69
10310;BME280;5200;43.236;27.986;2022-07-25T09:37:39;99938.34;;;26.28;71.29
10310;BME280;5200;43.236;27.986;2022-07-25T09:40:16;99928.16;;;26.01;71.18
10310;BME280;5200;43.236;27.986;2022-07-25T09:42:49;99921.56;;;25.68;72.90
10310;BME280;5200;43.236;27.986;2022-07-25T09:45:16;99954.09;;;25.90;72.58
10310;BME280;5200;43.236;27.986;2022-07-25T09:47:52;99953.38;;;25.95;72.49
10310;BME280;5200;43.236;27.986;2022-07-25T09:50:21;99938.31;;;25.70;73.98
10310;BME280;5200;43.236;27.986;2022-07-25T09:52:49;99956.97;;;26.01;73.53
10310;BME280;5200;43.236;27.986;2022-07-25T09:55:18;99941.22;;;25.81;73.26
10310;BME280;5200;43.236;27.986;2022-07-25T09:57:46;99954.31;;;25.77;74.29
10310;BME280;5200;43.236;27.986;2022-07-25T10:00:15;99943.25;;;26.02;73.22
10310;BME280;5200;43.236;27.986;2022-07-25T10:02:51;99940.28;;;26.15;72.93
10310;BME280;5200;43.236;27.986;2022-07-25T10:05:30;99941.19;;;26.21;72.83
10310;BME280;5200;43.236;27.986;2022-07-25T10:08:04;99931.34;;;26.15;72.97
10310;BME280;5200;43.236;27.986;2022-07-25T10:10:39;99916.97;;;26.09;72.45
10310;BME280;5200;43.236;27.986;2022-07-25T10:13:08;99926.41;;;25.95;74.00
10310;BME280;5200;43.236;27.986;2022-07-25T10:15:44;99903.69;;;25.91;72.91
10310;BME280;5200;43.236;27.986;2022-07-25T10:18:12;99928.31;;;26.40;72.65
10310;BME280;5200;43.236;27.986;2022-07-25T10:20:40;99940.13;;;26.68;70.49
10310;BME280;5200;43.236;27.986;2022-07-25T10:23:18;99927.78;;;26.72;70.92
10310;BME280;5200;43.236;27.986;2022-07-25T10:25:57;99913.78;;;26.75;70.33
10310;BME280;5200;43.236;27.986;2022-07-25T10:28:34;99928.00;;;26.87;69.09
10310;BME280;5200;43.236;27.986;2022-07-25T10:31:02;99906.44;;;26.70;70.39
10310;BME280;5200;43.236;27.986;2022-07-25T10:33:40;99929.41;;;26.73;70.19
10310;BME280;5200;43.236;27.986;2022-07-25T10:36:08;99904.31;;;26.55;71.01
10310;BME280;5200;43.236;27.986;2022-07-25T10:38:37;99895.22;;;26.78;70.18
10310;BME280;5200;43.236;27.986;2022-07-25T10:41:07;99913.06;;;27.18;69.27
10310;BME280;5200;43.236;27.986;2022-07-25T10:43:38;99915.03;;;27.23;69.15
10310;BME280;5200;43.236;27.986;2022-07-25T10:46:10;99896.41;;;27.05;68.96
10310;BME280;5200;43.236;27.986;2022-07-25T10:48:38;99875.03;;;26.81;69.55
10310;BME280;5200;43.236;27.986;2022-07-25T10:51:06;99913.78;;;27.14;68.70
10310;BME280;5200;43.236;27.986;2022-07-25T10:53:35;99903.69;;;27.21;69.23
10310;BME280;5200;43.236;27.986;2022-07-25T10:56:07;99897.34;;;27.15;68.94
10310;BME280;5200;43.236;27.986;2022-07-25T10:58:46;99896.34;;;27.38;69.47
10310;BME280;5200;43.236;27.986;2022-07-25T11:01:14;99887.59;;;27.53;68.96
10310;BME280;5200;43.236;27.986;2022-07-25T11:03:45;99867.75;;;27.43;66.75
10310;BME280;5200;43.236;27.986;2022-07-25T11:06:12;99885.78;;;27.59;67.36
10310;BME280;5200;43.236;27.986;2022-07-25T11:08:39;99887.38;;;27.33;67.87
10310;BME280;5200;43.236;27.986;2022-07-25T11:11:08;99880.91;;;27.17;69.70
10310;BME280;5200;43.236;27.986;2022-07-25T11:13:37;99872.97;;;27.27;69.95
10310;BME280;5200;43.236;27.986;2022-07-25T11:16:05;99881.63;;;27.51;70.36
10310;BME280;5200;43.236;27.986;2022-07-25T11:18:34;99894.50;;;27.66;70.24
10310;BME280;5200;43.236;27.986;2022-07-25T11:21:04;99883.75;;;27.71;69.87
10310;BME280;5200;43.236;27.986;2022-07-25T11:23:32;99887.47;;;27.87;69.39
10310;BME280;5200;43.236;27.986;2022-07-25T11:26:04;99883.41;;;27.85;70.20
10310;BME280;5200;43.236;27.986;2022-07-25T11:28:43;99890.03;;;27.99;69.02
10310;BME280;5200;43.236;27.986;2022-07-25T11:31:11;99881.22;;;27.87;69.44
10310;BME280;5200;43.236;27.986;2022-07-25T11:33:40;99895.19;;;27.78;66.73
10310;BME280;5200;43.236;27.986;2022-07-25T11:36:09;99867.03;;;27.74;68.76
10310;BME280;5200;43.236;27.986;2022-07-25T11:38:37;99876.06;;;27.63;69.43
10310;BME280;5200;43.236;27.986;2022-07-25T11:41:05;99859.88;;;27.63;69.16
10310;BME280;5200;43.236;27.986;2022-07-25T11:43:32;99868.78;;;27.86;70.28
10310;BME280;5200;43.236;27.986;2022-07-25T11:46:02;99885.06;;;27.91;69.41
10310;BME280;5200;43.236;27.986;2022-07-25T11:48:33;99876.22;;;27.73;68.13
10310;BME280;5200;43.236;27.986;2022-07-25T11:51:09;99862.22;;;27.54;67.37
10310;BME280;5200;43.236;27.986;2022-07-25T11:53:45;99871.28;;;27.43;69.82
10310;BME280;5200;43.236;27.986;2022-07-25T11:56:17;99869.75;;;27.30;71.68
10310;BME280;5200;43.236;27.986;2022-07-25T11:58:55;99860.69;;;26.97;72.04
10310;BME280;5200;43.236;27.986;2022-07-25T12:01:32;99865.06;;;27.04;71.56
10310;BME280;5200;43.236;27.986;2022-07-25T12:04:11;99860.13;;;26.78;75.13
10310;BME280;5200;43.236;27.986;2022-07-25T12:06:39;99863.19;;;26.65;77.51
10310;BME280;5200;43.236;27.986;2022-07-25T12:09:11;99857.78;;;26.65;79.24
10310;BME280;5200;43.236;27.986;2022-07-25T12:11:38;99863.16;;;26.82;78.39
10310;BME280;5200;43.236;27.986;2022-07-25T12:14:05;99864.44;;;26.58;77.22
10310;BME280;5200;43.236;27.986;2022-07-25T12:16:35;99866.19;;;26.35;78.08
10310;BME280;5200;43.236;27.986;2022-07-25T12:19:03;99861.28;;;26.32;79.29
10310;BME280;5200;43.236;27.986;2022-07-25T12:21:30;99837.25;;;26.30;79.83
10310;BME280;5200;43.236;27.986;2022-07-25T12:23:56;99846.44;;;26.63;79.26
10310;BME280;5200;43.236;27.986;2022-07-25T12:26:23;99856.53;;;26.73;78.81
10310;BME280;5200;43.236;27.986;2022-07-25T12:28:50;99859.59;;;26.98;75.63
10310;BME280;5200;43.236;27.986;2022-07-25T12:31:17;99848.75;;;27.15;74.77
10310;BME280;5200;43.236;27.986;2022-07-25T12:33:46;99862.94;;;27.06;74.34
10310;BME280;5200;43.236;27.986;2022-07-25T12:36:13;99842.31;;;26.99;73.95
10310;BME280;5200;43.236;27.986;2022-07-25T12:38:40;99830.22;;;27.02;73.98
10310;BME280;5200;43.236;27.986;2022-07-25T12:41:07;99842.41;;;27.05;75.24
10310;BME280;5200;43.236;27.986;2022-07-25T12:43:34;99845.88;;;27.00;74.55
10310;BME280;5200;43.236;27.986;2022-07-25T12:46:01;99844.72;;;26.96;73.80
10310;BME280;5200;43.236;27.986;2022-07-25T12:48:28;99828.41;;;26.86;73.58
10310;BME280;5200;43.236;27.986;2022-07-25T12:50:56;99843.91;;;26.95;72.66
10310;BME280;5200;43.236;27.986;2022-07-25T12:53:23;99850.44;;;26.99;72.37
10310;BME280;5200;43.236;27.986;2022-07-25T12:55:50;99836.81;;;27.11;71.90
10310;BME280;5200;43.236;27.986;2022-07-25T12:58:17;99840.78;;;27.04;71.45
10310;BME280;5200;43.236;27.986;2022-07-25T13:00:45;99848.16;;;26.91;71.58
10310;BME280;5200;43.236;27.986;2022-07-25T13:03:13;99847.00;;;26.65;74.71